createdAt,value
2017-12-24T00:01:41.465Z,9.30
2017-12-24T00:04:09.948Z,9.30
2017-12-24T00:06:38.430Z,9.30
2017-12-24T00:09:06.904Z,9.30
2017-12-24T00:11:34.607Z,9.30
2017-12-24T00:14:02.318Z,9.30
2017-12-24T00:16:30.041Z,9.30
2017-12-24T00:18:57.754Z,9.30
2017-12-24T00:21:25.459Z,9.30
2017-12-24T00:23:53.170Z,9.30
2017-12-24T00:26:20.881Z,9.30
2017-12-24T00:28:48.594Z,9.30
2017-12-24T00:31:16.302Z,9.30
2017-12-24T00:33:44.777Z,9.20
2017-12-24T00:36:13.245Z,9.20
2017-12-24T00:38:40.958Z,9.20
2017-12-24T00:41:08.662Z,9.20
2017-12-24T00:43:36.373Z,9.20
2017-12-24T00:46:04.086Z,9.30
2017-12-24T00:48:31.795Z,9.20
2017-12-24T00:50:59.507Z,9.20
2017-12-24T00:53:27.214Z,9.10
2017-12-24T00:55:54.936Z,9.10
2017-12-24T00:58:22.646Z,9.10
2017-12-24T01:00:50.375Z,9.20
2017-12-24T01:03:18.082Z,9.10
2017-12-24T01:05:45.793Z,9.10
2017-12-24T01:08:13.505Z,9.10
2017-12-24T01:10:41.214Z,9.20
2017-12-24T01:13:08.922Z,9.20
2017-12-24T01:15:36.634Z,9.20
2017-12-24T01:18:04.353Z,9.20
2017-12-24T01:20:32.062Z,9.20
2017-12-24T01:22:59.766Z,9.20
2017-12-24T01:25:28.238Z,9.20
2017-12-24T01:27:56.706Z,9.20
2017-12-24T01:30:24.418Z,9.20
2017-12-24T01:32:52.129Z,9.20
2017-12-24T01:35:19.837Z,9.20
2017-12-24T01:37:47.553Z,9.20
2017-12-24T01:40:15.263Z,9.20
2017-12-24T01:42:42.978Z,9.20
2017-12-24T01:45:10.695Z,9.20
2017-12-24T01:47:50.275Z,9.20
2017-12-24T01:50:17.983Z,9.20
2017-12-24T01:52:46.483Z,9.20
2017-12-24T01:55:14.195Z,9.20
2017-12-24T01:57:41.910Z,9.20
2017-12-24T02:00:09.652Z,9.20
2017-12-24T02:02:38.126Z,9.10
2017-12-24T02:05:06.605Z,9.10
2017-12-24T02:07:35.090Z,9.10
2017-12-24T02:10:03.635Z,9.00
2017-12-24T02:12:31.355Z,9.00
2017-12-24T02:14:59.835Z,9.00
2017-12-24T02:17:28.324Z,9.00
2017-12-24T02:19:56.037Z,9.00
2017-12-24T02:22:23.752Z,9.00
2017-12-24T02:24:51.458Z,8.90
2017-12-24T02:27:19.174Z,8.90
2017-12-24T02:29:47.658Z,8.90
2017-12-24T02:32:15.368Z,8.90
2017-12-24T02:34:43.082Z,9.00
2017-12-24T02:37:11.547Z,9.00
2017-12-24T02:39:40.158Z,9.00
2017-12-24T02:42:07.864Z,9.00
2017-12-24T02:44:36.333Z,9.00
2017-12-24T02:47:04.042Z,9.00
2017-12-24T02:49:32.522Z,9.00
2017-12-24T02:52:00.994Z,9.10
2017-12-24T02:54:28.702Z,9.00
2017-12-24T02:56:56.413Z,9.10
2017-12-24T02:59:24.133Z,9.00
2017-12-24T03:01:51.854Z,9.00
2017-12-24T03:04:19.566Z,9.00
2017-12-24T03:06:47.282Z,9.00
2017-12-24T03:09:15.002Z,8.90
2017-12-24T03:11:42.706Z,8.90
2017-12-24T03:14:10.418Z,8.90
2017-12-24T03:16:38.133Z,8.90
2017-12-24T03:19:05.845Z,8.90
2017-12-24T03:21:33.554Z,8.80
2017-12-24T03:24:01.278Z,8.80
2017-12-24T03:26:28.981Z,8.80
2017-12-24T03:28:56.682Z,8.80
2017-12-24T03:31:24.393Z,8.90
2017-12-24T03:33:52.106Z,8.90
2017-12-24T03:36:19.805Z,8.90
2017-12-24T03:38:47.513Z,8.90
2017-12-24T03:41:15.987Z,8.90
2017-12-24T03:43:43.701Z,8.90
2017-12-24T03:46:11.408Z,8.90
2017-12-24T03:48:39.115Z,8.80
2017-12-24T03:51:06.835Z,8.80
2017-12-24T03:53:34.598Z,8.80
2017-12-24T03:56:02.322Z,8.80
2017-12-24T03:58:30.040Z,8.80
2017-12-24T04:00:58.513Z,8.90
2017-12-24T04:03:26.247Z,8.80
2017-12-24T04:05:53.954Z,8.80
2017-12-24T04:08:22.421Z,8.80
2017-12-24T04:10:50.130Z,8.70
2017-12-24T04:13:17.838Z,8.80
2017-12-24T04:15:45.566Z,8.80
2017-12-24T04:18:13.274Z,8.80
2017-12-24T04:20:40.974Z,8.80
2017-12-24T04:23:09.579Z,8.80
2017-12-24T04:25:37.291Z,8.80
2017-12-24T04:28:05.002Z,8.80
2017-12-24T04:30:32.709Z,8.80
2017-12-24T04:33:00.425Z,8.80
2017-12-24T04:35:28.135Z,8.80
2017-12-24T04:37:55.838Z,8.90
2017-12-24T04:40:23.546Z,8.80
2017-12-24T04:42:51.273Z,8.70
2017-12-24T04:45:18.986Z,8.70
2017-12-24T04:47:46.689Z,8.60
2017-12-24T04:50:14.398Z,8.60
2017-12-24T04:52:42.106Z,8.60
2017-12-24T04:55:10.577Z,8.50
2017-12-24T04:57:38.289Z,8.50
2017-12-24T05:00:06.054Z,8.50
2017-12-24T05:02:33.755Z,8.50
2017-12-24T05:05:01.466Z,8.50
2017-12-24T05:07:29.182Z,8.50
2017-12-24T05:09:56.894Z,8.50
2017-12-24T05:12:24.601Z,8.60
2017-12-24T05:14:52.318Z,8.60
2017-12-24T05:17:20.033Z,8.60
2017-12-24T05:19:47.751Z,8.60
2017-12-24T05:22:15.474Z,8.60
2017-12-24T05:24:43.178Z,8.60
2017-12-24T05:27:11.949Z,8.60
2017-12-24T05:29:42.898Z,8.60
2017-12-24T05:32:10.734Z,8.70
2017-12-24T05:34:38.445Z,8.60
2017-12-24T05:37:06.145Z,8.60
2017-12-24T05:39:33.858Z,8.60
2017-12-24T05:42:01.566Z,8.60
2017-12-24T05:44:29.334Z,8.70
2017-12-24T05:46:57.030Z,8.70
2017-12-24T05:49:25.510Z,8.60
2017-12-24T05:51:53.981Z,8.70
2017-12-24T05:54:21.685Z,8.60
2017-12-24T05:56:49.397Z,8.70
2017-12-24T05:59:17.101Z,8.70
2017-12-24T06:01:44.805Z,8.70
2017-12-24T06:04:12.514Z,8.70
2017-12-24T06:06:40.986Z,8.70
2017-12-24T06:09:09.466Z,8.70
2017-12-24T06:11:37.942Z,8.70
2017-12-24T06:14:06.809Z,8.70
2017-12-24T06:16:34.547Z,8.70
2017-12-24T06:19:02.257Z,8.70
2017-12-24T06:21:29.966Z,8.70
2017-12-24T06:23:57.690Z,8.70
2017-12-24T06:26:25.407Z,8.60
2017-12-24T06:28:53.118Z,8.60
2017-12-24T06:31:20.828Z,8.60
2017-12-24T06:33:48.532Z,8.70
2017-12-24T06:36:16.254Z,8.70
2017-12-24T06:38:43.961Z,8.70
2017-12-24T06:41:11.734Z,8.70
2017-12-24T06:43:39.450Z,8.70
2017-12-24T06:46:07.158Z,8.70
2017-12-24T06:48:34.876Z,8.80
2017-12-24T06:51:02.588Z,8.80
2017-12-24T06:53:30.297Z,8.80
2017-12-24T06:55:58.024Z,8.80
2017-12-24T06:58:26.507Z,8.80
2017-12-24T07:00:54.985Z,8.80
2017-12-24T07:03:23.470Z,8.80
2017-12-24T07:05:51.959Z,8.70
2017-12-24T07:08:20.437Z,8.70
2017-12-24T07:10:48.927Z,8.70
2017-12-24T07:13:17.414Z,8.70
2017-12-24T07:15:45.134Z,8.70
2017-12-24T07:18:12.850Z,8.70
2017-12-24T07:20:40.574Z,8.70
2017-12-24T07:23:08.292Z,8.70
2017-12-24T07:25:36.030Z,8.70
2017-12-24T07:28:04.510Z,8.70
2017-12-24T07:30:32.998Z,8.70
2017-12-24T07:33:00.713Z,8.70
2017-12-24T07:35:28.436Z,8.70
2017-12-24T07:37:56.145Z,8.70
2017-12-24T07:40:23.857Z,8.70
2017-12-24T07:42:51.558Z,8.70
2017-12-24T07:45:19.249Z,8.70
2017-12-24T07:47:46.954Z,8.70
2017-12-24T07:50:14.662Z,8.80
2017-12-24T07:52:42.362Z,8.90
2017-12-24T07:55:10.842Z,8.80
2017-12-24T07:57:39.323Z,8.80
2017-12-24T08:00:07.794Z,8.80
2017-12-24T08:02:35.493Z,8.80
2017-12-24T08:05:03.623Z,8.80
2017-12-24T08:07:32.575Z,8.80
2017-12-24T08:10:00.352Z,8.80
2017-12-24T08:12:28.058Z,8.80
2017-12-24T08:14:56.524Z,8.90
2017-12-24T08:17:24.229Z,8.80
2017-12-24T08:19:51.922Z,8.90
2017-12-24T08:22:19.647Z,8.90
2017-12-24T08:24:47.359Z,9.00
2017-12-24T08:27:15.070Z,8.90
2017-12-24T08:29:43.539Z,8.90
2017-12-24T08:32:12.006Z,8.90
2017-12-24T08:34:39.715Z,8.90
2017-12-24T08:37:07.420Z,8.90
2017-12-24T08:39:35.122Z,8.90
2017-12-24T08:42:03.876Z,9.00
2017-12-24T08:44:31.594Z,8.90
2017-12-24T08:47:07.833Z,9.00
2017-12-24T08:49:35.581Z,8.90
2017-12-24T08:52:04.910Z,8.90
2017-12-24T08:54:32.627Z,9.00
2017-12-24T08:57:00.346Z,9.00
2017-12-24T08:59:28.062Z,9.00
2017-12-24T09:01:55.777Z,9.00
2017-12-24T09:04:23.493Z,9.00
2017-12-24T09:06:51.249Z,9.10
2017-12-24T09:09:19.022Z,9.10
2017-12-24T09:11:46.741Z,9.10
2017-12-24T09:14:15.302Z,9.10
2017-12-24T09:16:43.774Z,9.10
2017-12-24T09:19:12.261Z,9.10
2017-12-24T09:21:40.754Z,9.10
2017-12-24T09:24:08.563Z,9.10
2017-12-24T09:26:36.273Z,9.10
2017-12-24T09:29:04.766Z,9.10
2017-12-24T09:31:32.478Z,9.10
2017-12-24T09:34:00.419Z,9.10
2017-12-24T09:36:28.171Z,9.10
2017-12-24T09:38:55.889Z,9.10
2017-12-24T09:41:23.904Z,9.10
2017-12-24T09:43:51.673Z,9.10
2017-12-24T09:46:19.386Z,9.10
2017-12-24T09:48:51.018Z,9.20
2017-12-24T09:51:19.014Z,9.10
2017-12-24T09:53:46.747Z,9.10
2017-12-24T09:56:14.492Z,9.10
2017-12-24T09:58:42.224Z,9.10
2017-12-24T10:01:10.722Z,9.10
2017-12-24T10:03:39.193Z,9.10
2017-12-24T10:06:08.626Z,9.10
2017-12-24T10:08:36.342Z,9.10
2017-12-24T10:11:06.294Z,9.10
2017-12-24T10:13:34.012Z,9.10
2017-12-24T10:16:01.734Z,9.10
2017-12-24T10:18:29.469Z,9.10
2017-12-24T10:20:57.948Z,9.20
2017-12-24T10:23:26.429Z,9.20
2017-12-24T10:25:54.905Z,9.20
2017-12-24T10:28:23.421Z,9.20
2017-12-24T10:30:51.129Z,9.10
2017-12-24T10:33:18.850Z,9.20
2017-12-24T10:35:46.568Z,9.10
2017-12-24T10:38:14.293Z,9.10
2017-12-24T10:40:42.013Z,9.20
2017-12-24T10:43:10.506Z,9.10
2017-12-24T10:45:38.987Z,9.10
2017-12-24T10:48:07.517Z,9.10
2017-12-24T10:50:35.230Z,9.10
2017-12-24T10:53:03.714Z,9.10
2017-12-24T10:55:32.191Z,9.10
2017-12-24T10:58:00.662Z,9.20
2017-12-24T11:00:29.147Z,9.20
2017-12-24T11:02:57.620Z,9.30
2017-12-24T11:05:25.327Z,9.20
2017-12-24T11:07:53.049Z,9.30
2017-12-24T11:10:20.766Z,9.30
2017-12-24T11:12:49.151Z,9.40
2017-12-24T11:15:18.257Z,9.40
2017-12-24T11:17:47.193Z,9.50
2017-12-24T11:20:17.409Z,9.40
2017-12-24T11:22:47.499Z,9.40
2017-12-24T11:25:15.969Z,9.40
2017-12-24T11:27:46.421Z,9.40
2017-12-24T11:30:16.894Z,9.30
2017-12-24T11:32:47.543Z,9.40
2017-12-24T11:35:17.645Z,9.40
2017-12-24T11:37:46.188Z,9.40
2017-12-24T11:40:16.331Z,9.40
2017-12-24T11:42:44.057Z,9.40
2017-12-24T11:45:11.749Z,9.40
2017-12-24T11:47:40.286Z,9.40
2017-12-24T11:50:08.026Z,9.40
2017-12-24T11:52:35.729Z,9.40
2017-12-24T11:55:03.453Z,9.40
2017-12-24T11:57:31.162Z,9.40
2017-12-24T11:59:58.866Z,9.40
2017-12-24T12:02:27.335Z,9.40
2017-12-24T12:04:55.814Z,9.40
2017-12-24T12:07:24.299Z,9.40
2017-12-24T12:09:52.790Z,9.40
2017-12-24T12:12:21.254Z,9.40
2017-12-24T12:14:48.967Z,9.40
2017-12-24T12:17:16.664Z,9.40
2017-12-24T12:19:44.370Z,9.40
2017-12-24T12:22:12.075Z,9.40
2017-12-24T12:24:39.769Z,9.50
2017-12-24T12:27:07.474Z,9.50
2017-12-24T12:29:35.174Z,9.50
2017-12-24T12:32:02.865Z,9.40
2017-12-24T12:34:31.335Z,9.30
2017-12-24T12:36:59.215Z,9.30
2017-12-24T12:39:27.689Z,9.30
2017-12-24T12:41:55.397Z,9.30
2017-12-24T12:44:23.116Z,9.30
2017-12-24T12:46:50.833Z,9.20
2017-12-24T12:49:19.307Z,9.20
2017-12-24T12:51:47.018Z,9.20
2017-12-24T12:54:14.745Z,9.20
2017-12-24T12:56:42.526Z,9.20
2017-12-24T12:59:10.246Z,9.20
2017-12-24T13:01:37.961Z,9.30
2017-12-24T13:04:05.677Z,9.30
2017-12-24T13:06:33.455Z,9.30
2017-12-24T13:09:01.167Z,9.30
2017-12-24T13:11:28.890Z,9.30
2017-12-24T13:13:56.649Z,9.30
2017-12-24T13:16:24.369Z,9.30
2017-12-24T13:18:52.091Z,9.30
2017-12-24T13:21:19.803Z,9.20
2017-12-24T13:23:48.276Z,9.20
2017-12-24T13:26:16.009Z,9.20
2017-12-24T13:28:43.721Z,9.20
2017-12-24T13:31:12.213Z,9.30
2017-12-24T13:33:39.958Z,9.20
2017-12-24T13:36:08.437Z,9.30
2017-12-24T13:38:36.157Z,9.20
2017-12-24T13:41:03.869Z,9.30
2017-12-24T13:43:32.338Z,9.20
2017-12-24T13:46:00.284Z,9.20
2017-12-24T13:48:27.994Z,9.20
2017-12-24T13:50:56.736Z,9.10
2017-12-24T13:53:25.275Z,9.10
2017-12-24T13:55:52.990Z,9.10
2017-12-24T13:58:21.881Z,9.10
2017-12-24T14:00:49.594Z,9.10
2017-12-24T14:03:17.322Z,9.10
2017-12-24T14:05:45.043Z,9.10
2017-12-24T14:08:12.753Z,9.00
2017-12-24T14:10:40.484Z,9.00
2017-12-24T14:13:08.245Z,9.00
2017-12-24T14:15:35.997Z,9.10
2017-12-24T14:18:03.722Z,9.10
2017-12-24T14:20:32.201Z,9.10
2017-12-24T14:23:00.680Z,9.00
2017-12-24T14:25:28.389Z,9.00
2017-12-24T14:27:56.122Z,9.00
2017-12-24T14:30:24.609Z,9.10
2017-12-24T14:32:55.392Z,9.10
2017-12-24T14:35:23.250Z,9.10
2017-12-24T14:37:50.977Z,9.00
2017-12-24T14:40:21.973Z,9.00
2017-12-24T14:46:26.632Z,9.00
2017-12-24T14:48:54.354Z,9.00
2017-12-24T14:51:23.316Z,9.10
2017-12-24T14:53:51.933Z,9.10
2017-12-24T14:56:22.683Z,9.00
2017-12-24T14:58:52.660Z,9.10
2017-12-24T15:01:23.937Z,9.10
2017-12-24T15:03:54.404Z,9.00
2017-12-24T15:06:24.656Z,9.10
2017-12-24T15:08:55.861Z,9.10
2017-12-24T15:11:26.822Z,9.10
2017-12-24T15:13:57.478Z,9.10
2017-12-24T15:16:29.445Z,9.10
2017-12-24T15:19:03.189Z,9.10
2017-12-24T15:21:35.178Z,9.10
2017-12-24T15:24:06.572Z,9.00
2017-12-24T15:26:35.414Z,9.00
2017-12-24T15:29:03.141Z,9.00
2017-12-24T15:31:30.856Z,9.10
2017-12-24T15:33:59.698Z,9.00
2017-12-24T15:36:27.421Z,9.00
2017-12-24T15:38:55.898Z,9.00
2017-12-24T15:41:24.377Z,9.00
2017-12-24T15:43:52.072Z,9.00
2017-12-24T15:46:19.799Z,9.00
2017-12-24T15:48:47.504Z,9.00
2017-12-24T15:51:15.200Z,9.00
2017-12-24T15:53:42.914Z,9.00
2017-12-24T15:56:11.405Z,9.00
2017-12-24T15:58:39.110Z,9.00
2017-12-24T16:01:06.823Z,9.00
2017-12-24T16:03:34.526Z,9.00
2017-12-24T16:06:02.238Z,9.00
2017-12-24T16:08:30.718Z,8.90
2017-12-24T16:10:59.265Z,8.90
2017-12-24T16:13:26.965Z,8.90
2017-12-24T16:15:55.428Z,8.90
2017-12-24T16:18:24.233Z,8.90
2017-12-24T16:20:52.715Z,9.00
2017-12-24T16:23:20.433Z,8.90
2017-12-24T16:25:48.173Z,9.00
2017-12-24T16:28:15.862Z,8.90
2017-12-24T16:30:43.564Z,8.90
2017-12-24T16:33:11.286Z,8.90
2017-12-24T16:35:38.985Z,8.90
2017-12-24T16:38:06.690Z,9.00
2017-12-24T16:40:34.413Z,9.00
2017-12-24T16:43:02.237Z,8.90
2017-12-24T16:45:29.948Z,8.90
2017-12-24T16:47:57.663Z,8.90
2017-12-24T16:50:25.390Z,8.80
2017-12-24T16:52:53.869Z,8.80
2017-12-24T16:55:22.413Z,8.80
2017-12-24T16:57:50.279Z,8.80
2017-12-24T17:00:17.998Z,8.80
2017-12-24T17:02:45.702Z,8.80
2017-12-24T17:05:13.421Z,8.70
2017-12-24T17:07:41.898Z,8.70
2017-12-24T17:10:10.381Z,8.70
2017-12-24T17:12:38.862Z,8.70
2017-12-24T17:15:07.345Z,8.70
2017-12-24T17:17:35.828Z,8.70
2017-12-24T17:20:04.313Z,8.70
2017-12-24T17:22:32.035Z,8.70
2017-12-24T17:24:59.776Z,8.70
2017-12-24T17:27:27.490Z,8.70
2017-12-24T17:29:55.970Z,8.70
2017-12-24T17:32:24.450Z,8.60
2017-12-24T17:34:52.195Z,8.60
2017-12-24T17:37:19.908Z,8.70
2017-12-24T17:39:47.621Z,8.60
2017-12-24T17:42:15.352Z,8.60
2017-12-24T17:44:43.080Z,8.60
2017-12-24T17:47:11.554Z,8.60
2017-12-24T17:49:40.087Z,8.70
2017-12-24T17:52:07.810Z,8.60
2017-12-24T17:54:36.294Z,8.70
2017-12-24T17:57:04.773Z,8.70
2017-12-24T17:59:32.491Z,8.70
2017-12-24T18:02:00.215Z,8.70
2017-12-24T18:04:27.930Z,8.70
2017-12-24T18:06:55.648Z,8.70
2017-12-24T18:09:23.354Z,8.70
2017-12-24T18:11:51.074Z,8.60
2017-12-24T18:14:18.786Z,8.60
2017-12-24T18:16:46.499Z,8.60
2017-12-24T18:19:14.210Z,8.60
2017-12-24T18:21:41.917Z,8.70
2017-12-24T18:24:10.389Z,8.70
2017-12-24T18:26:38.869Z,8.70
2017-12-24T18:29:07.356Z,8.70
2017-12-24T18:31:35.838Z,8.70
2017-12-24T18:34:04.334Z,8.70
2017-12-24T18:36:32.046Z,8.60
2017-12-24T18:38:59.761Z,8.70
2017-12-24T18:41:27.473Z,8.70
2017-12-24T18:43:55.171Z,8.60
2017-12-24T18:46:22.910Z,8.60
2017-12-24T18:48:50.606Z,8.60
2017-12-24T18:51:19.070Z,8.60
2017-12-24T18:53:46.773Z,8.60
2017-12-24T18:56:14.469Z,8.60
2017-12-24T18:58:42.171Z,8.60
2017-12-24T19:01:10.712Z,8.60
2017-12-24T19:03:38.417Z,8.60
2017-12-24T19:06:06.886Z,8.60
2017-12-24T19:08:34.673Z,8.60
2017-12-24T19:11:03.137Z,8.60
2017-12-24T19:13:31.606Z,8.70
2017-12-24T19:15:59.329Z,8.70
2017-12-24T19:18:27.030Z,8.70
2017-12-24T19:20:54.733Z,8.80
2017-12-24T19:23:22.486Z,8.90
2017-12-24T19:25:50.953Z,9.00
2017-12-24T19:28:19.425Z,9.00
2017-12-24T19:30:47.133Z,9.00
2017-12-24T19:33:14.834Z,9.00
2017-12-24T19:35:42.530Z,9.00
2017-12-24T19:38:10.993Z,9.00
2017-12-24T19:40:38.698Z,9.00
2017-12-24T19:43:06.399Z,9.00
2017-12-24T19:45:34.101Z,9.00
2017-12-24T19:48:02.561Z,9.00
2017-12-24T19:50:30.262Z,8.90
2017-12-24T19:52:57.973Z,9.00
2017-12-24T19:55:25.669Z,9.00
2017-12-24T19:57:53.365Z,9.00
2017-12-24T20:00:21.062Z,9.00
2017-12-24T20:02:48.772Z,8.90
2017-12-24T20:05:17.230Z,8.80
2017-12-24T20:07:44.930Z,8.80
2017-12-24T20:10:12.631Z,8.80
2017-12-24T20:12:40.325Z,8.80
2017-12-24T20:15:08.025Z,8.80
2017-12-24T20:17:35.754Z,8.80
2017-12-24T20:20:03.481Z,8.70
2017-12-24T20:22:31.175Z,8.80
2017-12-24T20:24:58.882Z,8.80
2017-12-24T20:27:26.574Z,8.70
2017-12-24T20:29:54.269Z,8.70
2017-12-24T20:32:21.966Z,8.70
2017-12-24T20:34:49.697Z,8.70
2017-12-24T20:37:17.402Z,8.70
2017-12-24T20:39:45.102Z,8.70
2017-12-24T20:42:12.806Z,8.70
2017-12-24T20:44:41.266Z,8.70
2017-12-24T20:47:08.983Z,8.70
2017-12-24T20:49:36.677Z,8.70
2017-12-24T20:52:04.390Z,8.80
2017-12-24T20:54:32.094Z,8.90
2017-12-24T20:56:59.797Z,8.90
2017-12-24T20:59:28.264Z,9.00
2017-12-24T21:01:55.962Z,9.00
2017-12-24T21:04:23.663Z,8.90
2017-12-24T21:06:51.361Z,8.90
2017-12-24T21:09:19.063Z,8.90
2017-12-24T21:11:46.775Z,8.90
2017-12-24T21:14:14.477Z,8.90
2017-12-24T21:16:42.175Z,8.80
2017-12-24T21:19:09.865Z,8.90
2017-12-24T21:21:37.561Z,8.90
2017-12-24T21:24:06.022Z,8.90
2017-12-24T21:26:33.721Z,8.90
2017-12-24T21:29:01.426Z,9.00
2017-12-24T21:31:29.122Z,8.90
2017-12-24T21:33:57.587Z,9.00
2017-12-24T21:36:25.286Z,8.90
2017-12-24T21:38:52.981Z,9.00
2017-12-24T21:41:20.678Z,8.90
2017-12-24T21:43:48.369Z,8.90
2017-12-24T21:46:16.826Z,8.80
2017-12-24T21:48:44.518Z,8.80
2017-12-24T21:51:12.228Z,8.90
2017-12-24T21:53:39.921Z,8.90
2017-12-24T21:56:08.390Z,8.80
2017-12-24T21:58:36.089Z,8.80
2017-12-24T22:01:03.801Z,8.90
2017-12-24T22:03:31.494Z,8.80
2017-12-24T22:05:59.190Z,8.90
2017-12-24T22:08:26.889Z,8.80
2017-12-24T22:10:54.592Z,8.80
2017-12-24T22:13:23.062Z,8.80
2017-12-24T22:15:50.758Z,8.80
2017-12-24T22:18:18.461Z,8.80
2017-12-24T22:20:46.159Z,8.80
2017-12-24T22:23:14.618Z,8.70
2017-12-24T22:25:42.319Z,8.70
2017-12-24T22:28:10.787Z,8.70
2017-12-24T22:30:39.331Z,8.60
2017-12-24T22:33:07.026Z,8.60
2017-12-24T22:35:34.722Z,8.60
2017-12-24T22:38:02.445Z,8.60
2017-12-24T22:40:30.145Z,8.60
2017-12-24T22:42:57.857Z,8.70
2017-12-24T22:45:25.566Z,8.70
2017-12-24T22:47:54.039Z,8.70
2017-12-24T22:50:22.530Z,8.60
2017-12-24T22:52:51.009Z,8.60
2017-12-24T22:55:19.486Z,8.60
2017-12-24T22:57:47.974Z,8.60
2017-12-24T23:00:15.686Z,8.60
2017-12-24T23:02:43.389Z,8.60
2017-12-24T23:05:11.862Z,8.50
2017-12-24T23:07:39.565Z,8.50
2017-12-24T23:10:07.283Z,8.50
2017-12-24T23:12:35.010Z,8.40
2017-12-24T23:15:02.962Z,8.40
2017-12-24T23:17:31.290Z,8.50
2017-12-24T23:20:00.160Z,8.50
2017-12-24T23:22:28.027Z,8.50
2017-12-24T23:24:55.894Z,8.50
2017-12-24T23:27:23.598Z,8.50
2017-12-24T23:29:52.067Z,8.40
2017-12-24T23:32:19.769Z,8.40
2017-12-24T23:34:47.483Z,8.50
2017-12-24T23:37:15.190Z,8.40
2017-12-24T23:39:42.905Z,8.40
2017-12-24T23:42:10.630Z,8.50
2017-12-24T23:44:38.338Z,8.50
2017-12-24T23:47:06.045Z,8.50
2017-12-24T23:49:33.758Z,8.50
2017-12-24T23:52:01.465Z,8.50
2017-12-24T23:54:29.942Z,8.50
2017-12-24T23:56:58.413Z,8.50
2017-12-24T23:59:26.889Z,8.50
